createdAt,value
2023-02-27T00:00:31.468Z,1.98
2023-02-27T00:02:59.013Z,2.15
2023-02-27T00:05:26.365Z,2.08
2023-02-27T00:07:53.752Z,2.17
2023-02-27T00:10:21.291Z,2.95
2023-02-27T00:12:48.733Z,3.05
2023-02-27T00:15:18.694Z,3.13
2023-02-27T00:17:46.692Z,2.72
2023-02-27T00:20:16.237Z,2.20
2023-02-27T00:22:44.369Z,1.70
2023-02-27T00:25:13.345Z,3.25
2023-02-27T00:27:40.767Z,1.10
2023-02-27T00:30:10.281Z,2.28
2023-02-27T00:32:37.653Z,2.17
2023-02-27T00:35:06.490Z,1.17
2023-02-27T00:37:34.659Z,2.30
2023-02-27T00:40:02.511Z,1.52
2023-02-27T00:42:30.968Z,1.40
2023-02-27T00:44:58.497Z,1.80
2023-02-27T00:47:25.833Z,1.83
2023-02-27T00:49:53.156Z,1.80
2023-02-27T00:52:20.422Z,1.13
2023-02-27T00:54:47.730Z,1.67
2023-02-27T00:57:15.034Z,1.40
2023-02-27T00:59:42.454Z,1.27
2023-02-27T01:02:09.757Z,1.88
2023-02-27T01:04:37.064Z,1.95
2023-02-27T01:07:04.368Z,1.40
2023-02-27T01:09:31.673Z,1.88
2023-02-27T01:11:59.059Z,1.60
2023-02-27T01:14:26.438Z,2.08
2023-02-27T01:16:53.768Z,0.98
2023-02-27T01:19:21.095Z,1.15
2023-02-27T01:21:48.339Z,1.55
2023-02-27T01:24:15.710Z,1.88
2023-02-27T01:26:42.992Z,1.95
2023-02-27T01:29:10.643Z,1.40
2023-02-27T01:31:37.936Z,0.90
2023-02-27T01:34:05.210Z,1.27
2023-02-27T01:36:32.520Z,2.17
2023-02-27T01:38:59.936Z,1.50
2023-02-27T01:41:27.664Z,1.25
2023-02-27T01:43:59.877Z,2.20
2023-02-27T01:46:28.655Z,0.98
2023-02-27T01:49:05.911Z,4.28
2023-02-27T01:51:37.461Z,1.85
2023-02-27T01:54:08.268Z,1.58
2023-02-27T01:56:35.961Z,1.75
2023-02-27T01:59:10.570Z,0.73
2023-02-27T02:04:25.258Z,1.70
2023-02-27T02:07:01.250Z,1.30
2023-02-27T02:09:30.529Z,1.83
2023-02-27T02:11:59.428Z,1.23
2023-02-27T02:14:26.736Z,1.40
2023-02-27T02:16:54.786Z,2.22
2023-02-27T02:19:24.776Z,2.05
2023-02-27T02:22:13.341Z,1.10
2023-02-27T02:24:59.470Z,1.38
2023-02-27T02:27:46.931Z,0.90
2023-02-27T02:30:35.672Z,1.60
2023-02-27T02:33:02.950Z,1.25
2023-02-27T02:36:17.919Z,0.85
2023-02-27T02:38:45.101Z,1.92
2023-02-27T02:41:21.357Z,1.73
2023-02-27T02:44:01.171Z,0.90
2023-02-27T02:46:46.694Z,2.08
2023-02-27T02:49:17.973Z,1.52
2023-02-27T02:52:03.100Z,1.10
2023-02-27T02:54:47.772Z,1.23
2023-02-27T02:57:27.597Z,0.75
2023-02-27T03:00:02.249Z,1.08
2023-02-27T03:05:03.367Z,1.23
2023-02-27T03:07:33.380Z,1.02
2023-02-27T03:10:09.902Z,0.98
2023-02-27T03:12:42.370Z,1.30
2023-02-27T03:15:42.709Z,1.95
2023-02-27T03:18:18.588Z,1.80
2023-02-27T03:21:01.443Z,1.27
2023-02-27T03:23:37.888Z,1.23
2023-02-27T03:26:06.906Z,1.83
2023-02-27T03:28:39.199Z,1.42
2023-02-27T03:31:38.729Z,1.05
2023-02-27T03:34:15.479Z,1.30
2023-02-27T03:37:08.184Z,1.42
2023-02-27T03:39:45.019Z,2.13
2023-02-27T03:42:36.960Z,1.40
2023-02-27T03:45:25.320Z,1.10
2023-02-27T03:47:53.260Z,0.77
2023-02-27T03:50:21.332Z,1.35
2023-02-27T03:52:48.963Z,1.15
2023-02-27T03:55:25.190Z,1.25
2023-02-27T03:57:53.119Z,1.60
2023-02-27T04:00:24.738Z,1.02
2023-02-27T04:02:54.662Z,1.20
2023-02-27T04:05:22.134Z,1.05
2023-02-27T04:08:06.644Z,1.42
2023-02-27T04:10:56.885Z,1.30
2023-02-27T04:13:42.831Z,1.33
2023-02-27T04:16:52.501Z,2.70
2023-02-27T04:19:34.823Z,0.88
2023-02-27T04:22:28.423Z,2.05
2023-02-27T04:25:10.876Z,1.58
2023-02-27T04:27:38.108Z,1.50
2023-02-27T04:30:13.964Z,1.92
2023-02-27T04:32:56.364Z,1.45
2023-02-27T04:35:35.052Z,1.00
2023-02-27T04:38:22.936Z,1.00
2023-02-27T04:40:56.233Z,1.13
2023-02-27T04:43:27.441Z,1.00
2023-02-27T04:45:57.113Z,1.40
2023-02-27T04:48:28.381Z,0.95
2023-02-27T04:51:11.438Z,1.58
2023-02-27T04:53:48.609Z,1.73
2023-02-27T04:56:25.745Z,0.77
2023-02-27T04:59:06.197Z,1.30
2023-02-27T05:01:41.788Z,0.88
2023-02-27T05:04:14.211Z,1.58
2023-02-27T05:06:45.689Z,1.10
2023-02-27T05:09:24.938Z,1.38
2023-02-27T05:11:59.943Z,1.08
2023-02-27T05:14:42.466Z,1.48
2023-02-27T05:17:18.395Z,2.25
2023-02-27T05:19:47.278Z,1.55
2023-02-27T05:22:29.534Z,1.20
2023-02-27T05:25:04.725Z,0.80
2023-02-27T05:27:58.668Z,1.80
2023-02-27T05:30:36.354Z,1.45
2023-02-27T05:33:26.758Z,1.67
2023-02-27T05:35:54.052Z,1.35
2023-02-27T05:38:49.595Z,1.10
2023-02-27T05:41:43.324Z,0.85
2023-02-27T05:44:19.221Z,1.95
2023-02-27T05:46:56.117Z,1.38
2023-02-27T05:49:48.189Z,1.05
2023-02-27T05:52:19.449Z,1.45
2023-02-27T05:55:01.668Z,1.30
2023-02-27T05:57:50.061Z,1.00
2023-02-27T06:00:51.538Z,1.20
2023-02-27T06:03:18.985Z,1.90
2023-02-27T06:05:47.491Z,1.13
2023-02-27T06:08:14.840Z,1.08
2023-02-27T06:10:42.115Z,1.65
2023-02-27T06:13:09.333Z,1.58
2023-02-27T06:15:36.591Z,1.48
2023-02-27T06:18:04.078Z,2.75
2023-02-27T06:20:31.426Z,1.33
2023-02-27T06:22:58.737Z,1.75
2023-02-27T06:25:26.602Z,1.88
2023-02-27T06:27:54.143Z,1.77
2023-02-27T06:30:21.636Z,2.63
2023-02-27T06:32:48.921Z,1.52
2023-02-27T06:35:16.468Z,1.50
2023-02-27T06:37:44.139Z,1.83
2023-02-27T06:40:11.801Z,1.75
2023-02-27T06:42:40.748Z,1.38
2023-02-27T06:45:09.138Z,1.88
2023-02-27T06:47:36.463Z,1.73
2023-02-27T06:50:05.316Z,1.63
2023-02-27T06:52:33.052Z,1.45
2023-02-27T06:55:00.307Z,2.00
2023-02-27T06:57:27.504Z,4.38
2023-02-27T06:59:54.777Z,2.95
2023-02-27T07:02:23.923Z,1.80
2023-02-27T07:04:51.762Z,1.83
2023-02-27T07:07:34.311Z,3.15
2023-02-27T07:10:04.865Z,1.58
2023-02-27T07:12:32.180Z,1.52
2023-02-27T07:14:59.589Z,2.25
2023-02-27T07:17:27.014Z,2.38
2023-02-27T07:19:54.649Z,1.80
2023-02-27T07:22:21.941Z,2.72
2023-02-27T07:24:49.179Z,1.85
2023-02-27T07:27:16.448Z,2.72
2023-02-27T07:29:43.695Z,10.63
2023-02-27T07:32:11.365Z,7.55
2023-02-27T07:34:38.737Z,5.63
2023-02-27T07:37:06.106Z,5.18
2023-02-27T07:39:33.431Z,5.70
2023-02-27T07:42:00.709Z,3.88
2023-02-27T07:44:27.968Z,4.07
2023-02-27T07:46:55.363Z,2.78
2023-02-27T07:49:22.688Z,3.85
2023-02-27T07:51:50.023Z,3.83
2023-02-27T07:54:17.471Z,4.45
2023-02-27T07:56:44.902Z,5.72
2023-02-27T07:59:12.596Z,2.80
2023-02-27T08:01:40.188Z,3.17
2023-02-27T08:04:07.578Z,2.03
2023-02-27T08:06:34.829Z,2.85
2023-02-27T08:09:02.297Z,3.53
2023-02-27T08:11:29.823Z,4.13
2023-02-27T08:14:01.797Z,3.25
2023-02-27T08:16:31.421Z,2.83
2023-02-27T08:18:59.394Z,2.83
2023-02-27T08:21:28.150Z,3.13
2023-02-27T08:23:55.784Z,4.07
2023-02-27T08:26:23.755Z,2.22
2023-02-27T08:28:51.533Z,3.35
2023-02-27T08:31:19.126Z,4.20
2023-02-27T08:33:46.388Z,2.60
2023-02-27T08:36:14.351Z,1.90
2023-02-27T08:38:41.629Z,5.03
2023-02-27T08:41:08.896Z,3.97
2023-02-27T08:43:36.198Z,3.20
2023-02-27T08:46:03.528Z,1.95
2023-02-27T08:48:30.779Z,3.13
2023-02-27T08:50:58.140Z,1.98
2023-02-27T08:53:25.818Z,2.75
2023-02-27T08:55:53.352Z,2.10
2023-02-27T08:58:20.945Z,2.25
2023-02-27T09:00:48.553Z,4.00
2023-02-27T09:03:15.931Z,3.33
2023-02-27T09:05:43.436Z,2.80
2023-02-27T09:08:10.831Z,2.13
2023-02-27T09:10:38.213Z,1.95
2023-02-27T09:13:05.599Z,2.97
2023-02-27T09:15:35.923Z,2.35
2023-02-27T09:18:06.515Z,1.90
2023-02-27T09:20:36.901Z,2.72
2023-02-27T09:23:04.833Z,2.30
2023-02-27T09:25:32.354Z,2.83
2023-02-27T09:27:59.700Z,3.17
2023-02-27T09:30:27.065Z,2.38
2023-02-27T09:32:54.562Z,2.47
2023-02-27T09:35:22.223Z,2.10
2023-02-27T09:37:49.660Z,2.10
2023-02-27T09:40:39.623Z,3.55
2023-02-27T09:43:43.578Z,4.95
2023-02-27T09:46:21.127Z,2.65
2023-02-27T09:48:51.255Z,1.77
2023-02-27T09:51:20.945Z,2.22
2023-02-27T09:53:55.703Z,2.40
2023-02-27T09:56:46.809Z,2.90
2023-02-27T09:59:17.209Z,2.08
2023-02-27T10:01:50.439Z,2.15
2023-02-27T10:04:18.450Z,2.22
2023-02-27T10:07:13.056Z,1.98
2023-02-27T10:10:19.526Z,4.47
2023-02-27T10:12:59.784Z,3.20
2023-02-27T10:15:32.246Z,2.38
2023-02-27T10:18:25.461Z,2.47
2023-02-27T10:21:02.835Z,1.87
2023-02-27T10:23:59.604Z,1.98
2023-02-27T10:26:30.290Z,3.50
2023-02-27T10:29:02.573Z,2.65
2023-02-27T10:31:33.906Z,1.35
2023-02-27T10:34:02.062Z,1.73
2023-02-27T10:36:34.246Z,1.33
2023-02-27T10:39:11.082Z,2.35
2023-02-27T10:41:39.936Z,1.88
2023-02-27T10:44:07.442Z,1.65
2023-02-27T10:46:38.590Z,2.58
2023-02-27T10:49:19.288Z,2.03
2023-02-27T10:52:03.469Z,2.55
2023-02-27T10:54:31.284Z,2.53
2023-02-27T10:57:02.315Z,1.80
2023-02-27T10:59:41.810Z,1.77
2023-02-27T11:02:20.746Z,2.47
2023-02-27T11:04:53.941Z,2.28
2023-02-27T11:07:47.823Z,3.20
2023-02-27T11:10:17.115Z,1.85
2023-02-27T11:13:06.499Z,2.10
2023-02-27T11:15:36.534Z,2.08
2023-02-27T11:18:31.268Z,1.70
2023-02-27T11:21:18.022Z,1.20
2023-02-27T11:24:04.235Z,1.40
2023-02-27T11:26:38.156Z,1.65
2023-02-27T11:29:08.370Z,2.67
2023-02-27T11:31:38.071Z,2.17
2023-02-27T11:34:08.134Z,1.35
2023-02-27T11:36:47.454Z,4.20
2023-02-27T11:39:37.791Z,1.63
2023-02-27T11:42:30.748Z,2.58
2023-02-27T11:45:00.776Z,2.42
2023-02-27T11:47:35.521Z,2.10
2023-02-27T11:50:30.204Z,1.10
2023-02-27T11:53:34.361Z,1.97
2023-02-27T11:56:05.136Z,1.38
2023-02-27T11:58:40.419Z,2.55
2023-02-27T12:01:18.316Z,1.00
2023-02-27T12:04:12.440Z,2.15
2023-02-27T12:06:50.120Z,2.30
2023-02-27T12:09:20.472Z,3.03
2023-02-27T12:11:49.240Z,1.35
2023-02-27T12:14:46.202Z,1.77
2023-02-27T12:17:29.536Z,2.05
2023-02-27T12:20:27.518Z,1.48
2023-02-27T12:22:55.829Z,3.30
2023-02-27T12:25:36.230Z,1.35
2023-02-27T12:28:36.812Z,1.08
2023-02-27T12:31:13.148Z,1.88
2023-02-27T12:34:09.556Z,1.73
2023-02-27T12:36:36.920Z,1.60
2023-02-27T12:39:04.813Z,2.75
2023-02-27T12:41:44.056Z,1.90
2023-02-27T12:44:31.637Z,0.95
2023-02-27T12:47:21.614Z,1.55
2023-02-27T12:49:51.839Z,2.20
2023-02-27T12:52:48.363Z,1.35
2023-02-27T12:55:23.959Z,1.92
2023-02-27T12:58:16.454Z,1.17
2023-02-27T13:01:01.337Z,2.65
2023-02-27T13:03:50.087Z,1.58
2023-02-27T13:06:25.966Z,3.00
2023-02-27T13:09:20.840Z,1.08
2023-02-27T13:12:11.006Z,1.63
2023-02-27T13:14:59.846Z,1.10
2023-02-27T13:17:34.785Z,1.77
2023-02-27T13:20:21.386Z,0.80
2023-02-27T13:22:53.714Z,1.05
2023-02-27T13:25:22.214Z,1.15
2023-02-27T13:27:57.486Z,1.15
2023-02-27T13:30:42.150Z,1.42
2023-02-27T13:33:22.229Z,1.23
2023-02-27T13:36:23.892Z,1.10
2023-02-27T13:38:54.131Z,0.75
2023-02-27T13:41:21.399Z,1.85
2023-02-27T13:43:56.149Z,0.93
2023-02-27T13:49:20.018Z,1.63
2023-02-27T13:51:53.288Z,0.47
2023-02-27T13:54:39.990Z,1.48
2023-02-27T13:57:14.193Z,1.75
2023-02-27T13:59:44.290Z,2.25
2023-02-27T14:02:11.573Z,1.10
2023-02-27T14:04:47.235Z,1.00
2023-02-27T14:07:18.801Z,1.05
2023-02-27T14:09:48.876Z,0.80
2023-02-27T14:12:45.544Z,0.82
2023-02-27T14:15:26.257Z,0.90
2023-02-27T14:18:14.165Z,0.82
2023-02-27T14:20:43.084Z,1.73
2023-02-27T14:23:25.620Z,0.45
2023-02-27T14:25:57.836Z,3.65
2023-02-27T14:28:34.841Z,1.60
2023-02-27T14:31:20.916Z,1.38
2023-02-27T14:33:55.055Z,1.08
2023-02-27T14:36:30.148Z,0.65
2023-02-27T14:39:00.225Z,1.40
2023-02-27T14:41:27.735Z,1.35
2023-02-27T14:43:57.497Z,0.73
2023-02-27T14:46:29.545Z,1.02
2023-02-27T14:49:00.158Z,1.70
2023-02-27T14:51:30.649Z,2.22
2023-02-27T14:54:02.149Z,1.80
2023-02-27T14:56:29.820Z,1.65
2023-02-27T14:59:04.267Z,0.82
2023-02-27T15:01:36.173Z,1.55
2023-02-27T15:04:05.784Z,1.98
2023-02-27T15:06:45.838Z,1.30
2023-02-27T15:09:24.436Z,0.90
2023-02-27T15:12:04.028Z,0.77
2023-02-27T15:14:36.267Z,0.88
2023-02-27T15:17:04.736Z,1.88
2023-02-27T15:19:32.320Z,2.28
2023-02-27T15:22:04.862Z,1.00
2023-02-27T15:24:49.428Z,1.35
2023-02-27T15:27:23.795Z,1.42
2023-02-27T15:29:59.894Z,0.82
2023-02-27T15:32:45.452Z,1.15
2023-02-27T15:35:35.157Z,2.22
2023-02-27T15:38:02.777Z,2.03
2023-02-27T15:40:32.961Z,1.35
2023-02-27T15:43:01.505Z,0.98
2023-02-27T15:45:33.235Z,0.88
2023-02-27T15:48:00.942Z,1.00
2023-02-27T15:50:37.388Z,1.00
2023-02-27T15:53:21.539Z,1.63
2023-02-27T15:56:15.259Z,1.30
2023-02-27T15:58:50.721Z,2.38
2023-02-27T16:01:23.392Z,1.70
2023-02-27T16:03:56.438Z,1.13
2023-02-27T16:06:28.317Z,1.42
2023-02-27T16:09:01.551Z,3.28
2023-02-27T16:11:31.782Z,1.25
2023-02-27T16:13:59.398Z,1.83
2023-02-27T16:16:37.453Z,1.75
2023-02-27T16:19:27.288Z,1.52
2023-02-27T16:22:18.896Z,1.30
2023-02-27T16:24:47.511Z,1.30
2023-02-27T16:27:23.694Z,1.15
2023-02-27T16:29:52.754Z,1.35
2023-02-27T16:32:34.960Z,1.30
2023-02-27T16:35:08.658Z,1.30
2023-02-27T16:37:41.402Z,1.33
2023-02-27T16:40:14.512Z,3.85
2023-02-27T16:42:42.539Z,0.95
2023-02-27T16:45:18.758Z,2.20
2023-02-27T16:47:50.004Z,3.30
2023-02-27T16:50:21.944Z,1.25
2023-02-27T16:52:49.328Z,3.95
2023-02-27T16:55:16.695Z,2.58
2023-02-27T16:57:43.938Z,3.70
2023-02-27T17:00:14.174Z,3.63
2023-02-27T17:02:42.987Z,1.75
2023-02-27T17:05:11.148Z,1.30
2023-02-27T17:07:38.579Z,0.70
2023-02-27T17:10:07.509Z,1.73
2023-02-27T17:12:34.980Z,1.33
2023-02-27T17:15:02.287Z,2.95
2023-02-27T17:17:29.561Z,4.88
2023-02-27T17:19:57.135Z,5.45
2023-02-27T17:22:24.478Z,3.35
2023-02-27T17:24:51.734Z,5.88
2023-02-27T17:27:19.021Z,2.67
2023-02-27T17:29:46.240Z,6.80
2023-02-27T17:32:13.489Z,7.95
2023-02-27T17:34:40.827Z,11.70
2023-02-27T17:37:08.126Z,10.27
2023-02-27T17:39:35.449Z,14.00
2023-02-27T17:42:02.757Z,10.68
2023-02-27T17:44:30.304Z,10.40
2023-02-27T17:47:00.440Z,10.43
2023-02-27T17:49:27.759Z,14.15
2023-02-27T17:51:55.162Z,18.23
2023-02-27T17:54:22.404Z,12.80
2023-02-27T17:56:49.674Z,12.55
2023-02-27T17:59:17.133Z,10.50
2023-02-27T18:01:44.626Z,13.75
2023-02-27T18:04:12.979Z,17.08
2023-02-27T18:06:40.369Z,13.02
2023-02-27T18:09:07.952Z,18.30
2023-02-27T18:11:37.381Z,20.80
2023-02-27T18:14:05.819Z,14.43
2023-02-27T18:16:33.513Z,16.10
2023-02-27T18:19:04.398Z,15.65
2023-02-27T18:21:31.913Z,10.82
2023-02-27T18:23:59.220Z,12.10
2023-02-27T18:26:31.148Z,21.38
2023-02-27T18:29:05.633Z,13.27
2023-02-27T18:31:36.558Z,10.23
2023-02-27T18:34:04.574Z,10.63
2023-02-27T18:36:32.443Z,10.50
2023-02-27T18:39:00.337Z,11.45
2023-02-27T18:41:29.225Z,13.27
2023-02-27T18:43:56.712Z,8.88
2023-02-27T18:46:24.534Z,10.85
2023-02-27T18:48:52.332Z,7.03
2023-02-27T18:51:19.828Z,9.05
2023-02-27T18:53:49.514Z,6.32
2023-02-27T18:56:23.750Z,8.90
2023-02-27T18:58:52.123Z,7.80
2023-02-27T19:01:24.991Z,7.07
2023-02-27T19:03:53.971Z,9.50
2023-02-27T19:06:21.324Z,8.90
2023-02-27T19:08:48.597Z,14.25
2023-02-27T19:11:29.419Z,6.20
2023-02-27T19:14:01.954Z,14.07
2023-02-27T19:16:30.617Z,7.05
2023-02-27T19:18:59.734Z,9.15
2023-02-27T19:21:28.119Z,10.40
2023-02-27T19:23:55.887Z,7.53
2023-02-27T19:26:24.237Z,5.47
2023-02-27T19:28:53.816Z,7.63
2023-02-27T19:31:23.577Z,6.13
2023-02-27T19:33:51.813Z,9.10
2023-02-27T19:36:21.124Z,5.80
2023-02-27T19:38:49.175Z,5.22
2023-02-27T19:41:17.387Z,4.55
2023-02-27T19:43:45.878Z,5.45
2023-02-27T19:46:21.601Z,7.10
2023-02-27T19:48:48.941Z,6.43
2023-02-27T19:51:17.357Z,6.43
2023-02-27T19:53:48.381Z,6.68
2023-02-27T19:56:18.401Z,9.52
2023-02-27T19:58:46.688Z,5.47
2023-02-27T20:01:21.041Z,8.10
2023-02-27T20:03:48.560Z,6.80
2023-02-27T20:06:18.990Z,4.25
2023-02-27T20:08:46.406Z,7.00
2023-02-27T20:11:15.614Z,10.82
2023-02-27T20:13:46.290Z,6.18
2023-02-27T20:16:16.524Z,7.53
2023-02-27T20:18:44.396Z,4.35
2023-02-27T20:21:20.991Z,9.05
2023-02-27T20:23:50.198Z,6.95
2023-02-27T20:26:29.763Z,7.32
2023-02-27T20:29:00.773Z,12.63
2023-02-27T20:31:30.939Z,5.70
2023-02-27T20:34:01.091Z,11.07
2023-02-27T20:36:29.002Z,4.25
2023-02-27T20:38:56.405Z,5.32
2023-02-27T20:41:28.189Z,4.45
2023-02-27T20:43:56.940Z,6.22
2023-02-27T20:46:28.425Z,7.22
2023-02-27T20:49:00.796Z,4.85
2023-02-27T20:51:36.449Z,4.28
2023-02-27T20:54:07.538Z,5.20
2023-02-27T20:56:38.208Z,4.68
2023-02-27T20:59:06.849Z,4.10
2023-02-27T21:01:35.311Z,5.97
2023-02-27T21:04:03.778Z,11.60
2023-02-27T21:06:32.105Z,11.98
2023-02-27T21:09:04.217Z,7.00
2023-02-27T21:11:33.209Z,9.10
2023-02-27T21:14:09.109Z,5.63
2023-02-27T21:16:37.956Z,9.18
2023-02-27T21:19:06.084Z,9.90
2023-02-27T21:21:34.748Z,11.18
2023-02-27T21:24:02.116Z,19.50
2023-02-27T21:26:35.614Z,6.38
2023-02-27T21:29:06.825Z,9.73
2023-02-27T21:31:35.694Z,9.35
2023-02-27T21:34:06.938Z,6.13
2023-02-27T21:36:36.793Z,8.40
2023-02-27T21:39:08.062Z,4.90
2023-02-27T21:41:35.477Z,6.05
2023-02-27T21:44:05.460Z,4.70
2023-02-27T21:46:34.018Z,6.22
2023-02-27T21:49:02.010Z,6.95
2023-02-27T21:51:39.995Z,3.55
2023-02-27T21:54:09.743Z,3.55
2023-02-27T21:56:37.605Z,4.97
2023-02-27T21:59:05.006Z,4.10
2023-02-27T22:01:33.470Z,4.55
2023-02-27T22:04:01.899Z,3.63
2023-02-27T22:06:32.234Z,10.27
2023-02-27T22:09:02.825Z,7.00
2023-02-27T22:11:30.729Z,3.78
2023-02-27T22:13:58.150Z,4.25
2023-02-27T22:16:25.489Z,6.15
2023-02-27T22:18:52.855Z,3.25
2023-02-27T22:21:23.247Z,2.22
2023-02-27T22:23:51.210Z,2.63
2023-02-27T22:26:24.409Z,2.72
2023-02-27T22:28:52.502Z,3.35
2023-02-27T22:31:26.291Z,4.93
2023-02-27T22:33:55.664Z,2.05
2023-02-27T22:36:26.090Z,3.35
2023-02-27T22:38:53.632Z,3.13
2023-02-27T22:41:23.688Z,1.77
2023-02-27T22:43:51.511Z,2.75
2023-02-27T22:46:26.238Z,2.72
2023-02-27T22:48:58.187Z,2.15
2023-02-27T22:51:28.432Z,2.25
2023-02-27T22:53:58.523Z,3.58
2023-02-27T22:56:26.374Z,3.17
2023-02-27T22:58:54.020Z,2.42
2023-02-27T23:01:27.173Z,2.22
2023-02-27T23:03:57.174Z,2.05
2023-02-27T23:06:27.733Z,3.60
2023-02-27T23:08:55.036Z,2.03
2023-02-27T23:11:22.938Z,1.67
2023-02-27T23:13:50.411Z,3.15
2023-02-27T23:16:18.218Z,1.55
2023-02-27T23:18:50.627Z,1.52
2023-02-27T23:21:20.589Z,2.08
2023-02-27T23:23:47.940Z,2.22
2023-02-27T23:26:15.735Z,3.50
2023-02-27T23:28:42.987Z,1.25
2023-02-27T23:31:10.378Z,2.40
2023-02-27T23:33:37.702Z,1.83
2023-02-27T23:36:05.331Z,3.58
2023-02-27T23:38:32.683Z,3.78
2023-02-27T23:41:06.814Z,2.25
2023-02-27T23:43:53.415Z,1.60
2023-02-27T23:46:21.384Z,1.40
2023-02-27T23:48:49.191Z,3.35
2023-02-27T23:51:16.623Z,2.70
2023-02-27T23:53:44.931Z,1.83
2023-02-27T23:56:20.917Z,1.67
2023-02-27T23:58:52.912Z,1.63
